createdAt,value
2023-01-06T00:00:42.409Z,52.13
2023-01-06T00:03:10.096Z,53.11
2023-01-06T00:05:36.795Z,51.88
2023-01-06T00:08:03.505Z,52.21
2023-01-06T00:10:30.237Z,52.44
2023-01-06T00:12:56.939Z,52.35
2023-01-06T00:15:23.564Z,51.91
2023-01-06T00:17:50.320Z,52.16
2023-01-06T00:20:17.016Z,52.60
2023-01-06T00:22:43.869Z,54.16
2023-01-06T00:25:11.049Z,53.94
2023-01-06T00:27:39.147Z,54.30
2023-01-06T00:30:06.756Z,54.19
2023-01-06T00:32:33.477Z,55.19
2023-01-06T00:35:00.146Z,55.88
2023-01-06T00:37:26.810Z,54.93
2023-01-06T00:39:53.424Z,54.18
2023-01-06T00:42:20.209Z,56.17
2023-01-06T00:44:46.863Z,57.44
2023-01-06T00:47:14.334Z,57.09
2023-01-06T00:49:40.949Z,56.14
2023-01-06T00:52:07.668Z,57.44
2023-01-06T00:54:35.322Z,57.28
2023-01-06T00:57:02.467Z,55.66
2023-01-06T00:59:29.096Z,56.41
2023-01-06T01:01:57.718Z,55.82
2023-01-06T01:04:25.889Z,57.42
2023-01-06T01:06:53.867Z,58.68
2023-01-06T01:09:26.704Z,58.48
2023-01-06T01:12:12.394Z,59.30
2023-01-06T01:14:47.268Z,57.99
2023-01-06T01:17:19.584Z,59.48
2023-01-06T01:19:46.980Z,58.77
2023-01-06T01:22:13.708Z,59.02
2023-01-06T01:24:40.359Z,58.51
2023-01-06T01:27:07.380Z,58.65
2023-01-06T01:29:34.543Z,58.93
2023-01-06T01:32:02.738Z,59.24
2023-01-06T01:34:29.464Z,58.46
2023-01-06T01:36:56.769Z,58.97
2023-01-06T01:39:26.781Z,59.29
2023-01-06T01:41:55.013Z,59.09
2023-01-06T01:44:54.415Z,58.34
2023-01-06T01:47:35.681Z,58.01
2023-01-06T01:50:28.270Z,59.14
2023-01-06T01:53:02.339Z,58.73
2023-01-06T01:55:31.425Z,58.53
2023-01-06T01:58:12.539Z,57.77
2023-01-06T02:00:41.054Z,57.08
2023-01-06T02:03:08.117Z,57.29
2023-01-06T02:05:39.539Z,58.91
2023-01-06T02:08:15.323Z,58.30
2023-01-06T02:10:41.962Z,57.45
2023-01-06T02:13:08.771Z,57.35
2023-01-06T02:15:35.402Z,57.17
2023-01-06T02:18:16.951Z,57.04
2023-01-06T02:21:00.677Z,56.64
2023-01-06T02:23:57.235Z,57.14
2023-01-06T02:26:38.847Z,56.14
2023-01-06T02:29:17.295Z,55.81
2023-01-06T02:32:08.572Z,56.73
2023-01-06T02:34:47.133Z,56.96
2023-01-06T02:37:37.156Z,56.98
2023-01-06T02:40:47.552Z,56.45
2023-01-06T02:43:38.567Z,57.11
2023-01-06T02:46:29.031Z,57.54
2023-01-06T02:49:06.702Z,57.04
2023-01-06T02:52:04.016Z,56.42
2023-01-06T02:54:44.006Z,55.40
2023-01-06T02:57:26.920Z,56.41
2023-01-06T03:00:03.601Z,56.64
2023-01-06T03:02:32.936Z,57.30
2023-01-06T03:05:02.754Z,57.32
2023-01-06T03:07:31.821Z,57.38
2023-01-06T03:10:00.519Z,57.47
2023-01-06T03:12:43.060Z,57.28
2023-01-06T03:15:10.252Z,57.97
2023-01-06T03:17:36.940Z,56.98
2023-01-06T03:20:04.015Z,56.37
2023-01-06T03:22:32.273Z,56.85
2023-01-06T03:25:00.705Z,58.44
2023-01-06T03:27:28.127Z,57.83
2023-01-06T03:29:55.003Z,58.07
2023-01-06T03:32:34.198Z,56.71
2023-01-06T03:35:22.503Z,57.49
2023-01-06T03:37:58.000Z,57.02
2023-01-06T03:40:37.286Z,56.22
2023-01-06T03:43:22.044Z,56.61
2023-01-06T03:46:13.042Z,57.45
2023-01-06T03:48:54.362Z,57.13
2023-01-06T03:51:30.174Z,57.52
2023-01-06T03:54:14.356Z,56.95
2023-01-06T03:56:44.962Z,56.91
2023-01-06T03:59:17.225Z,56.62
2023-01-06T04:01:45.012Z,56.35
2023-01-06T04:04:11.864Z,57.30
2023-01-06T04:06:38.619Z,57.91
2023-01-06T04:09:05.410Z,57.07
2023-01-06T04:11:50.479Z,56.75
2023-01-06T04:14:17.121Z,57.17
2023-01-06T04:16:43.755Z,57.72
2023-01-06T04:19:10.409Z,57.80
2023-01-06T04:21:37.149Z,56.89
2023-01-06T04:24:04.248Z,58.29
2023-01-06T04:26:30.821Z,57.28
2023-01-06T04:28:57.427Z,57.78
2023-01-06T04:31:24.038Z,57.55
2023-01-06T04:33:50.698Z,56.46
2023-01-06T04:36:17.424Z,57.02
2023-01-06T04:38:46.763Z,57.51
2023-01-06T04:41:13.400Z,57.50
2023-01-06T04:43:40.084Z,57.71
2023-01-06T04:46:06.804Z,58.47
2023-01-06T04:48:33.463Z,57.84
2023-01-06T04:51:05.001Z,56.28
2023-01-06T04:53:36.846Z,57.61
2023-01-06T04:56:09.218Z,57.11
2023-01-06T04:58:36.375Z,56.65
2023-01-06T05:01:07.802Z,56.74
2023-01-06T05:03:37.825Z,55.80
2023-01-06T05:06:09.873Z,55.82
2023-01-06T05:08:38.038Z,55.34
2023-01-06T05:11:10.981Z,56.20
2023-01-06T05:13:37.897Z,57.13
2023-01-06T05:16:15.941Z,57.07
2023-01-06T05:18:42.603Z,55.69
2023-01-06T05:21:13.599Z,55.88
2023-01-06T05:23:40.703Z,56.88
2023-01-06T05:26:09.228Z,56.70
2023-01-06T05:28:35.813Z,56.67
2023-01-06T05:31:04.651Z,56.59
2023-01-06T05:33:32.680Z,56.35
2023-01-06T05:36:14.219Z,55.69
2023-01-06T05:38:41.308Z,56.40
2023-01-06T05:41:08.219Z,56.70
2023-01-06T05:43:36.070Z,55.95
2023-01-06T05:46:10.188Z,55.60
2023-01-06T05:48:37.857Z,56.31
2023-01-06T05:51:12.746Z,56.62
2023-01-06T05:53:41.360Z,56.60
2023-01-06T05:56:10.830Z,57.57
2023-01-06T05:58:40.424Z,56.51
2023-01-06T06:01:16.726Z,55.44
2023-01-06T06:03:43.888Z,55.01
2023-01-06T06:06:10.472Z,55.14
2023-01-06T06:08:37.099Z,56.74
2023-01-06T06:11:11.439Z,57.52
2023-01-06T06:13:38.718Z,55.77
2023-01-06T06:16:11.735Z,56.36
2023-01-06T06:18:42.996Z,56.66
2023-01-06T06:21:14.896Z,56.08
2023-01-06T06:23:41.985Z,57.12
2023-01-06T06:26:10.485Z,56.29
2023-01-06T06:28:38.255Z,56.04
2023-01-06T06:31:10.740Z,56.73
2023-01-06T06:33:37.824Z,55.14
2023-01-06T06:36:06.104Z,55.42
2023-01-06T06:38:32.935Z,54.80
2023-01-06T06:40:59.565Z,54.21
2023-01-06T06:43:26.215Z,54.68
2023-01-06T06:45:52.845Z,54.56
2023-01-06T06:48:19.539Z,55.67
2023-01-06T06:50:46.178Z,54.20
2023-01-06T06:53:12.790Z,55.02
2023-01-06T06:55:39.384Z,54.28
2023-01-06T06:58:07.141Z,54.19
2023-01-06T07:00:33.738Z,53.96
2023-01-06T07:03:00.588Z,52.54
2023-01-06T07:05:27.456Z,52.16
2023-01-06T07:07:54.113Z,53.14
2023-01-06T07:10:20.771Z,52.38
2023-01-06T07:12:47.340Z,52.85
2023-01-06T07:15:14.050Z,51.75
2023-01-06T07:17:41.975Z,52.32
2023-01-06T07:20:09.582Z,52.59
2023-01-06T07:22:40.201Z,52.22
2023-01-06T07:25:08.940Z,52.26
2023-01-06T07:27:36.459Z,53.62
2023-01-06T07:30:05.230Z,52.98
2023-01-06T07:32:31.840Z,52.43
2023-01-06T07:34:58.495Z,51.97
2023-01-06T07:37:25.106Z,52.62
2023-01-06T07:39:51.694Z,52.49
2023-01-06T07:42:18.313Z,52.19
2023-01-06T07:44:44.885Z,51.87
2023-01-06T07:47:11.455Z,52.46
2023-01-06T07:49:38.124Z,52.10
2023-01-06T07:52:04.837Z,51.28
2023-01-06T07:54:31.448Z,51.82
2023-01-06T07:56:58.118Z,53.26
2023-01-06T07:59:24.739Z,52.27
2023-01-06T08:01:51.465Z,52.47
2023-01-06T08:04:18.148Z,51.91
2023-01-06T08:06:44.855Z,52.48
2023-01-06T08:09:16.017Z,51.72
2023-01-06T08:11:42.662Z,52.70
2023-01-06T08:14:11.239Z,52.86
2023-01-06T08:16:41.406Z,52.75
2023-01-06T08:19:08.043Z,53.06
2023-01-06T08:21:34.737Z,52.53
2023-01-06T08:24:01.392Z,52.18
2023-01-06T08:26:28.080Z,52.22
2023-01-06T08:28:55.246Z,51.97
2023-01-06T08:31:22.410Z,51.87
2023-01-06T08:33:50.762Z,50.50
2023-01-06T08:36:19.464Z,50.79
2023-01-06T08:38:46.340Z,51.61
2023-01-06T08:41:13.039Z,52.46
2023-01-06T08:43:43.621Z,51.87
2023-01-06T08:46:14.248Z,51.35
2023-01-06T08:48:41.213Z,50.67
2023-01-06T08:51:12.761Z,50.26
2023-01-06T08:53:39.568Z,50.65
2023-01-06T08:56:14.087Z,50.15
2023-01-06T08:58:41.164Z,51.22
2023-01-06T09:01:14.765Z,50.87
2023-01-06T09:03:41.377Z,51.33
2023-01-06T09:06:08.072Z,51.00
2023-01-06T09:08:34.700Z,49.46
2023-01-06T09:11:10.057Z,49.85
2023-01-06T09:13:36.934Z,49.89
2023-01-06T09:16:10.448Z,49.42
2023-01-06T09:18:37.898Z,49.60
2023-01-06T09:21:05.547Z,49.68
2023-01-06T09:23:36.883Z,49.47
2023-01-06T09:26:03.609Z,50.35
2023-01-06T09:28:30.179Z,49.51
2023-01-06T09:30:56.853Z,49.57
2023-01-06T09:33:23.586Z,48.95
2023-01-06T09:35:50.326Z,48.22
2023-01-06T09:38:17.033Z,48.16
2023-01-06T09:41:11.347Z,48.76
2023-01-06T09:43:37.869Z,49.20
2023-01-06T09:46:06.346Z,48.23
2023-01-06T09:49:09.935Z,47.48
2023-01-06T09:51:38.036Z,47.71
2023-01-06T09:54:27.445Z,48.32
2023-01-06T09:57:08.175Z,48.27
2023-01-06T09:59:45.174Z,48.21
2023-01-06T10:02:21.250Z,47.95
2023-01-06T10:04:48.043Z,47.11
2023-01-06T10:07:43.876Z,46.68
2023-01-06T10:10:22.025Z,47.47
2023-01-06T10:13:00.951Z,46.81
2023-01-06T10:15:38.893Z,47.60
2023-01-06T10:18:37.807Z,46.70
2023-01-06T10:21:35.238Z,47.06
2023-01-06T10:24:14.990Z,46.08
2023-01-06T10:26:49.281Z,46.29
2023-01-06T10:29:20.705Z,46.26
2023-01-06T10:31:49.272Z,46.61
2023-01-06T10:34:27.386Z,46.66
2023-01-06T10:37:20.212Z,47.16
2023-01-06T10:39:54.361Z,47.67
2023-01-06T10:42:42.374Z,46.84
2023-01-06T10:45:14.990Z,46.23
2023-01-06T10:47:43.615Z,46.27
2023-01-06T10:50:15.936Z,46.65
2023-01-06T10:52:43.730Z,46.07
2023-01-06T10:55:34.039Z,47.82
2023-01-06T10:58:17.432Z,47.50
2023-01-06T11:01:11.891Z,47.68
2023-01-06T11:03:43.009Z,47.97
2023-01-06T11:06:24.357Z,47.10
2023-01-06T11:08:51.063Z,46.64
2023-01-06T11:11:34.697Z,46.10
2023-01-06T11:14:05.653Z,46.96
2023-01-06T11:16:35.716Z,47.15
2023-01-06T11:19:08.049Z,46.26
2023-01-06T11:21:43.793Z,46.41
2023-01-06T11:24:21.493Z,46.66
2023-01-06T11:26:53.223Z,46.23
2023-01-06T11:29:25.276Z,46.28
2023-01-06T11:31:52.071Z,46.16
2023-01-06T11:34:24.683Z,46.10
2023-01-06T11:36:52.617Z,46.39
2023-01-06T11:39:26.688Z,46.92
2023-01-06T11:41:55.594Z,46.83
2023-01-06T11:44:29.080Z,47.23
2023-01-06T11:46:59.381Z,48.15
2023-01-06T11:49:31.173Z,46.73
2023-01-06T11:52:12.398Z,47.99
2023-01-06T11:54:40.198Z,48.42
2023-01-06T11:57:39.619Z,47.58
2023-01-06T12:00:11.975Z,47.52
2023-01-06T12:02:45.333Z,47.96
2023-01-06T12:05:25.147Z,46.86
2023-01-06T12:07:54.417Z,46.94
2023-01-06T12:10:28.764Z,47.70
2023-01-06T12:12:55.437Z,48.05
2023-01-06T12:15:23.607Z,47.77
2023-01-06T12:17:58.319Z,47.10
2023-01-06T12:20:28.080Z,47.48
2023-01-06T12:23:17.661Z,47.43
2023-01-06T12:25:49.240Z,46.47
2023-01-06T12:28:21.264Z,47.47
2023-01-06T12:30:55.040Z,47.03
2023-01-06T12:33:34.035Z,47.17
2023-01-06T12:36:05.481Z,47.80
2023-01-06T12:38:47.364Z,47.06
2023-01-06T12:41:20.122Z,46.95
2023-01-06T12:43:58.684Z,46.49
2023-01-06T12:46:32.419Z,46.91
2023-01-06T12:49:42.574Z,45.74
2023-01-06T12:52:15.443Z,45.93
2023-01-06T12:54:52.667Z,47.35
2023-01-06T12:57:46.324Z,46.79
2023-01-06T13:00:18.732Z,46.28
2023-01-06T13:03:22.651Z,47.43
2023-01-06T13:06:13.167Z,46.13
2023-01-06T13:08:39.719Z,46.16
2023-01-06T13:11:32.512Z,46.50
2023-01-06T13:14:17.440Z,46.20
2023-01-06T13:16:54.748Z,45.91
2023-01-06T13:19:33.011Z,45.68
2023-01-06T13:22:01.949Z,46.02
2023-01-06T13:24:57.456Z,46.26
2023-01-06T13:27:57.858Z,46.03
2023-01-06T13:30:43.007Z,45.76
2023-01-06T13:33:27.509Z,46.55
2023-01-06T13:36:15.493Z,46.61
2023-01-06T13:39:00.192Z,46.10
2023-01-06T13:41:33.101Z,46.41
2023-01-06T13:44:01.726Z,46.70
2023-01-06T13:46:30.802Z,46.50
2023-01-06T13:49:02.465Z,46.59
2023-01-06T13:51:33.967Z,46.92
2023-01-06T13:54:02.871Z,47.38
2023-01-06T13:56:34.413Z,46.50
2023-01-06T13:59:47.836Z,46.33
2023-01-06T14:02:49.851Z,46.77
2023-01-06T14:05:19.330Z,46.52
2023-01-06T14:07:55.815Z,45.88
2023-01-06T14:10:30.960Z,45.45
2023-01-06T14:12:58.001Z,46.65
2023-01-06T14:15:36.576Z,46.75
2023-01-06T14:18:04.035Z,46.87
2023-01-06T14:20:33.694Z,46.83
2023-01-06T14:23:27.960Z,46.98
2023-01-06T14:25:57.092Z,46.38
2023-01-06T14:28:27.842Z,45.93
2023-01-06T14:31:31.512Z,45.76
2023-01-06T14:34:00.204Z,45.17
2023-01-06T14:36:31.860Z,45.65
2023-01-06T14:39:02.558Z,46.35
2023-01-06T14:41:35.231Z,46.67
2023-01-06T14:44:19.989Z,46.24
2023-01-06T14:46:53.971Z,46.27
2023-01-06T14:49:35.872Z,45.83
2023-01-06T14:52:09.715Z,46.53
2023-01-06T14:54:43.294Z,46.36
2023-01-06T14:57:34.870Z,45.91
2023-01-06T15:00:24.406Z,45.82
2023-01-06T15:02:54.144Z,47.08
2023-01-06T15:05:22.872Z,46.98
2023-01-06T15:08:26.425Z,46.66
2023-01-06T15:10:53.079Z,46.93
2023-01-06T15:13:21.633Z,47.10
2023-01-06T15:16:08.094Z,46.95
2023-01-06T15:18:36.786Z,48.31
2023-01-06T15:21:04.021Z,49.14
2023-01-06T15:23:30.683Z,47.76
2023-01-06T15:25:57.377Z,47.17
2023-01-06T15:28:31.614Z,47.26
2023-01-06T15:30:59.942Z,47.54
2023-01-06T15:33:35.938Z,48.01
2023-01-06T15:36:03.856Z,49.04
2023-01-06T15:38:37.179Z,49.62
2023-01-06T15:41:05.900Z,49.56
2023-01-06T15:43:44.172Z,49.37
2023-01-06T15:46:12.906Z,49.54
2023-01-06T15:48:47.203Z,48.71
2023-01-06T15:51:17.022Z,48.83
2023-01-06T15:53:46.630Z,49.04
2023-01-06T15:56:20.860Z,49.29
2023-01-06T15:58:50.673Z,48.92
2023-01-06T16:01:22.813Z,49.56
2023-01-06T16:03:52.980Z,50.34
2023-01-06T16:06:38.692Z,49.15
2023-01-06T16:09:20.615Z,49.31
2023-01-06T16:12:16.149Z,48.99
2023-01-06T16:14:47.118Z,50.28
2023-01-06T16:17:28.658Z,50.09
2023-01-06T16:20:01.070Z,48.58
2023-01-06T16:22:38.277Z,48.41
2023-01-06T16:25:34.365Z,47.90
2023-01-06T16:28:04.473Z,47.61
2023-01-06T16:30:36.760Z,47.51
2023-01-06T16:33:04.574Z,47.88
2023-01-06T16:35:38.324Z,47.39
2023-01-06T16:38:06.857Z,47.81
2023-01-06T16:40:33.587Z,48.40
2023-01-06T16:43:02.832Z,48.12
2023-01-06T16:45:32.475Z,49.15
2023-01-06T16:47:59.748Z,50.52
2023-01-06T16:50:34.262Z,49.91
2023-01-06T16:53:03.693Z,49.94
2023-01-06T16:55:30.866Z,50.93
2023-01-06T16:58:00.201Z,50.54
2023-01-06T17:00:27.149Z,51.33
2023-01-06T17:02:54.364Z,50.40
2023-01-06T17:05:27.373Z,50.48
2023-01-06T17:08:00.707Z,51.03
2023-01-06T17:10:28.459Z,50.36
2023-01-06T17:13:20.598Z,49.70
2023-01-06T17:15:51.544Z,51.19
2023-01-06T17:18:26.724Z,50.86
2023-01-06T17:21:00.279Z,51.18
2023-01-06T17:23:26.947Z,50.64
2023-01-06T17:26:02.319Z,49.79
2023-01-06T17:28:31.217Z,48.91
2023-01-06T17:31:00.004Z,48.33
2023-01-06T17:33:28.529Z,48.35
2023-01-06T17:35:56.474Z,48.66
2023-01-06T17:38:25.216Z,48.09
2023-01-06T17:40:52.663Z,48.37
2023-01-06T17:43:27.019Z,48.84
2023-01-06T17:45:53.770Z,48.82
2023-01-06T17:48:20.930Z,48.52
2023-01-06T17:50:50.899Z,48.40
2023-01-06T17:53:50.932Z,48.43
2023-01-06T17:56:17.825Z,48.32
2023-01-06T17:58:45.785Z,48.57
2023-01-06T18:01:34.024Z,48.06
2023-01-06T18:04:02.383Z,48.89
2023-01-06T18:06:37.296Z,48.95
2023-01-06T18:09:06.853Z,49.79
2023-01-06T18:11:42.015Z,49.27
2023-01-06T18:14:17.844Z,49.39
2023-01-06T18:16:50.285Z,49.15
2023-01-06T18:19:34.893Z,49.50
2023-01-06T18:22:16.785Z,48.79
2023-01-06T18:24:44.044Z,49.01
2023-01-06T18:27:27.419Z,49.34
2023-01-06T18:30:00.379Z,50.29
2023-01-06T18:32:32.568Z,51.07
2023-01-06T18:35:16.983Z,50.23
2023-01-06T18:37:44.132Z,50.92
2023-01-06T18:40:18.453Z,50.35
2023-01-06T18:42:47.312Z,49.89
2023-01-06T18:45:29.214Z,51.25
2023-01-06T18:47:59.689Z,51.49
2023-01-06T18:50:27.957Z,50.74
2023-01-06T18:53:05.625Z,50.61
2023-01-06T18:55:43.643Z,52.54
2023-01-06T18:58:22.084Z,52.31
2023-01-06T19:00:54.027Z,53.07
2023-01-06T19:03:52.598Z,52.40
2023-01-06T19:06:19.163Z,52.03
2023-01-06T19:08:49.087Z,51.28
2023-01-06T19:11:22.255Z,51.79
2023-01-06T19:13:50.099Z,50.94
2023-01-06T19:16:30.137Z,52.20
2023-01-06T19:19:18.975Z,53.51
2023-01-06T19:21:45.912Z,52.17
2023-01-06T19:24:27.755Z,52.20
2023-01-06T19:26:57.922Z,51.54
2023-01-06T19:29:28.424Z,50.86
2023-01-06T19:31:57.054Z,51.39
2023-01-06T19:34:23.790Z,51.14
2023-01-06T19:36:54.390Z,50.98
2023-01-06T19:39:24.249Z,51.26
2023-01-06T19:42:30.289Z,51.62
2023-01-06T19:45:09.269Z,50.78
2023-01-06T19:47:41.042Z,51.13
2023-01-06T19:50:20.417Z,51.07
2023-01-06T19:52:47.774Z,52.19
2023-01-06T19:55:17.332Z,51.86
2023-01-06T19:57:54.589Z,52.56
2023-01-06T20:00:26.655Z,52.71
2023-01-06T20:02:57.668Z,53.26
2023-01-06T20:05:28.345Z,52.08
2023-01-06T20:07:55.141Z,52.04
2023-01-06T20:10:21.854Z,52.13
2023-01-06T20:12:49.043Z,52.62
2023-01-06T20:15:16.812Z,52.90
2023-01-06T20:17:43.519Z,52.22
2023-01-06T20:20:10.815Z,51.87
2023-01-06T20:22:37.902Z,51.57
2023-01-06T20:25:04.920Z,51.84
2023-01-06T20:27:31.532Z,51.54
2023-01-06T20:29:58.154Z,51.36
2023-01-06T20:32:24.763Z,51.79
2023-01-06T20:34:51.420Z,51.76
2023-01-06T20:37:18.107Z,51.28
2023-01-06T20:39:45.002Z,52.78
2023-01-06T20:42:13.328Z,52.00
2023-01-06T20:44:40.836Z,52.40
2023-01-06T20:47:07.551Z,53.41
2023-01-06T20:49:34.539Z,53.76
2023-01-06T20:52:01.189Z,54.36
2023-01-06T20:54:27.826Z,52.88
2023-01-06T20:56:54.497Z,52.75
2023-01-06T20:59:21.132Z,53.56
2023-01-06T21:01:48.056Z,52.96
2023-01-06T21:04:15.057Z,52.93
2023-01-06T21:06:41.915Z,51.94
2023-01-06T21:09:08.516Z,52.41
2023-01-06T21:11:35.163Z,53.04
2023-01-06T21:14:01.985Z,52.40
2023-01-06T21:16:28.665Z,52.93
2023-01-06T21:18:55.356Z,52.09
2023-01-06T21:21:22.021Z,52.72
2023-01-06T21:23:48.637Z,52.63
2023-01-06T21:26:15.257Z,51.82
2023-01-06T21:28:41.886Z,51.82
2023-01-06T21:31:08.581Z,50.89
2023-01-06T21:33:35.240Z,52.02
2023-01-06T21:36:02.012Z,52.77
2023-01-06T21:38:28.606Z,52.95
2023-01-06T21:41:15.190Z,53.18
2023-01-06T21:43:41.826Z,52.67
2023-01-06T21:46:08.531Z,51.61
2023-01-06T21:48:35.145Z,51.84
2023-01-06T21:51:02.581Z,52.45
2023-01-06T21:53:31.681Z,52.48
2023-01-06T21:55:58.912Z,51.78
2023-01-06T21:58:25.915Z,52.05
2023-01-06T22:00:52.711Z,53.69
2023-01-06T22:03:19.342Z,52.57
2023-01-06T22:05:46.310Z,52.21
2023-01-06T22:08:13.248Z,51.80
2023-01-06T22:10:42.352Z,52.95
2023-01-06T22:13:12.681Z,53.33
2023-01-06T22:15:40.907Z,53.41
2023-01-06T22:18:08.397Z,53.86
2023-01-06T22:20:35.837Z,54.36
2023-01-06T22:23:06.827Z,54.13
2023-01-06T22:25:33.503Z,53.57
2023-01-06T22:28:00.113Z,53.61
2023-01-06T22:30:27.163Z,53.33
2023-01-06T22:32:53.764Z,53.34
2023-01-06T22:35:20.498Z,53.48
2023-01-06T22:37:47.200Z,53.57
2023-01-06T22:40:14.923Z,54.07
2023-01-06T22:42:42.208Z,53.93
2023-01-06T22:45:09.919Z,53.21
2023-01-06T22:47:36.497Z,53.29
2023-01-06T22:50:04.231Z,53.61
2023-01-06T22:52:31.079Z,53.22
2023-01-06T22:54:57.659Z,54.08
2023-01-06T22:57:24.387Z,53.02
2023-01-06T22:59:51.086Z,53.56
2023-01-06T23:02:17.936Z,54.10
2023-01-06T23:04:44.632Z,53.62
2023-01-06T23:07:11.500Z,53.37
2023-01-06T23:09:38.121Z,53.63
2023-01-06T23:12:04.938Z,52.73
2023-01-06T23:14:37.175Z,52.69
2023-01-06T23:17:03.801Z,53.08
2023-01-06T23:19:30.398Z,53.69
2023-01-06T23:21:57.150Z,53.16
2023-01-06T23:24:23.735Z,54.18
2023-01-06T23:26:50.308Z,53.19
2023-01-06T23:29:16.970Z,53.03
2023-01-06T23:31:46.338Z,52.65
2023-01-06T23:34:16.337Z,52.95
2023-01-06T23:36:44.126Z,53.47
2023-01-06T23:39:13.592Z,53.51
2023-01-06T23:41:40.547Z,53.72
2023-01-06T23:44:07.520Z,54.37
2023-01-06T23:46:39.358Z,53.86
2023-01-06T23:49:07.035Z,55.49
2023-01-06T23:51:34.380Z,54.96
2023-01-06T23:54:02.412Z,54.51
2023-01-06T23:56:30.904Z,55.25
2023-01-06T23:58:59.434Z,54.84
